createdAt,value
2023-10-14T00:00:59.497Z,70.6
2023-10-14T00:02:01.766Z,70.3
2023-10-14T00:02:59.489Z,70.6
2023-10-14T00:03:59.559Z,70.3
2023-10-14T00:05:03.701Z,70.6
2023-10-14T00:05:59.448Z,70.3
2023-10-14T00:06:59.503Z,70.9
2023-10-14T00:08:03.605Z,70.9
2023-10-14T00:08:59.808Z,70.9
2023-10-14T00:09:59.468Z,70.6
2023-10-14T00:11:04.725Z,70.3
2023-10-14T00:11:59.451Z,70.9
2023-10-14T00:12:59.477Z,70.3
2023-10-14T00:14:05.877Z,70.3
2023-10-14T00:14:59.450Z,70.9
2023-10-14T00:15:59.576Z,69.7
2023-10-14T00:17:07.457Z,70.3
2023-10-14T00:17:59.489Z,69.7
2023-10-14T00:18:59.668Z,70.3
2023-10-14T00:20:09.491Z,70.3
2023-10-14T00:20:59.451Z,70
2023-10-14T00:21:59.506Z,70.3
2023-10-14T00:22:59.451Z,70.4
2023-10-14T00:23:59.451Z,70.3
2023-10-14T00:24:59.495Z,70.4
2023-10-14T00:25:59.446Z,69.7
2023-10-14T00:26:59.445Z,69.7
2023-10-14T00:27:59.495Z,69.7
2023-10-14T00:28:59.460Z,70
2023-10-14T00:29:59.452Z,69.7
2023-10-14T00:30:59.535Z,69.7
2023-10-14T00:32:04.442Z,70.4
2023-10-14T00:32:59.502Z,69.7
2023-10-14T00:33:59.509Z,69.7
2023-10-14T00:35:05.733Z,69.1
2023-10-14T00:35:59.465Z,69.7
2023-10-14T00:36:59.711Z,70.4
2023-10-14T00:38:08.021Z,69.4
2023-10-14T00:38:59.446Z,70.1
2023-10-14T00:39:59.505Z,69.1
2023-10-14T00:41:09.439Z,69.8
2023-10-14T00:41:59.505Z,69.7
2023-10-14T00:42:59.509Z,69.4
2023-10-14T00:43:59.446Z,69.7
2023-10-14T00:44:59.451Z,68.5
2023-10-14T00:45:59.554Z,69.4
2023-10-14T00:46:59.500Z,70.1
2023-10-14T00:47:59.466Z,70.4
2023-10-14T00:48:59.502Z,70.1
2023-10-14T00:49:59.468Z,69.3
2023-10-14T00:50:59.454Z,69.7
2023-10-14T00:51:59.514Z,69.7
2023-10-14T00:52:59.488Z,70.1
2023-10-14T00:53:59.460Z,70.1
2023-10-14T00:54:59.829Z,70.4
2023-10-14T00:56:06.819Z,69.7
2023-10-14T00:56:59.481Z,69.7
2023-10-14T00:57:59.511Z,71
2023-10-14T00:59:07.791Z,70.7
2023-10-14T00:59:59.485Z,70.3
2023-10-14T01:00:59.663Z,70
2023-10-14T01:02:08.668Z,70.4
2023-10-14T01:02:59.462Z,70
2023-10-14T01:03:59.487Z,69.7
2023-10-14T01:05:10.056Z,70.4
2023-10-14T01:05:59.544Z,71
2023-10-14T01:06:59.488Z,71
2023-10-14T01:07:59.463Z,70.4
2023-10-14T01:08:59.456Z,70.7
2023-10-14T01:09:59.486Z,71.6
2023-10-14T01:10:59.467Z,71.3
2023-10-14T01:11:59.452Z,71.5
2023-10-14T01:12:59.482Z,71.3
2023-10-14T01:13:59.452Z,71
2023-10-14T01:14:59.478Z,71
2023-10-14T01:15:59.553Z,70.4
2023-10-14T01:16:59.467Z,71
2023-10-14T01:17:59.497Z,71.3
2023-10-14T01:18:59.484Z,71
2023-10-14T01:19:59.450Z,71.3
2023-10-14T01:20:59.451Z,71.6
2023-10-14T01:21:59.477Z,71
2023-10-14T01:22:59.806Z,71.3
2023-10-14T01:23:59.520Z,71.6
2023-10-14T01:24:59.532Z,71.3
2023-10-14T01:25:59.452Z,71
2023-10-14T01:26:59.478Z,71.6
2023-10-14T01:27:59.511Z,71
2023-10-14T01:28:59.456Z,71.6
2023-10-14T01:29:59.450Z,71.3
2023-10-14T01:30:59.488Z,70.3
2023-10-14T01:31:59.492Z,70.4
2023-10-14T01:32:59.564Z,71
2023-10-14T01:33:59.497Z,71
2023-10-14T01:34:59.459Z,70.7
2023-10-14T01:35:59.444Z,71
2023-10-14T01:36:59.486Z,70.4
2023-10-14T01:37:59.493Z,71
2023-10-14T01:38:59.458Z,71.3
2023-10-14T01:39:59.463Z,69.8
2023-10-14T01:40:59.452Z,71.3
2023-10-14T01:41:59.456Z,71.3
2023-10-14T01:42:59.512Z,70.4
2023-10-14T01:43:59.447Z,71
2023-10-14T01:44:59.452Z,70.7
2023-10-14T01:45:59.501Z,70.4
2023-10-14T01:46:59.489Z,70.4
2023-10-14T01:47:59.474Z,70.7
2023-10-14T01:48:59.503Z,71.1
2023-10-14T01:50:07.216Z,71.1
2023-10-14T01:50:59.643Z,71.7
2023-10-14T01:51:59.491Z,71.4
2023-10-14T01:53:09.172Z,71.8
2023-10-14T01:53:59.451Z,72.4
2023-10-14T01:54:59.517Z,71.8
2023-10-14T01:55:59.450Z,71.2
2023-10-14T01:56:59.449Z,73.1
2023-10-14T01:57:59.509Z,72.4
2023-10-14T01:58:59.445Z,73.1
2023-10-14T01:59:59.478Z,73.1
2023-10-14T02:00:59.396Z,73.1
2023-10-14T02:01:59.627Z,72.1
2023-10-14T02:02:59.603Z,73.7
2023-10-14T02:03:59.665Z,73.7
2023-10-14T02:04:59.557Z,74.3
2023-10-14T02:05:59.454Z,75
2023-10-14T02:06:59.479Z,75.3
2023-10-14T02:07:59.462Z,75.3
2023-10-14T02:08:59.695Z,75.3
2023-10-14T02:09:59.479Z,75.3
2023-10-14T02:10:59.449Z,75.3
2023-10-14T02:11:59.454Z,75.6
2023-10-14T02:12:59.492Z,75.3
2023-10-14T02:13:59.460Z,75
2023-10-14T02:14:59.470Z,75
2023-10-14T02:15:59.558Z,75.6
2023-10-14T02:16:59.495Z,75.6
2023-10-14T02:17:59.545Z,75.6
2023-10-14T02:18:59.508Z,75.6
2023-10-14T02:19:59.452Z,75.6
2023-10-14T02:20:59.453Z,75.6
2023-10-14T02:21:59.866Z,75.6
2023-10-14T02:22:59.454Z,75.6
2023-10-14T02:23:59.451Z,75
2023-10-14T02:24:59.481Z,75.6
2023-10-14T02:25:59.446Z,75.3
2023-10-14T02:26:59.516Z,75.6
2023-10-14T02:27:59.474Z,75
2023-10-14T02:28:59.454Z,75
2023-10-14T02:29:59.490Z,75.6
2023-10-14T02:30:59.534Z,75.9
2023-10-14T02:31:59.509Z,75.6
2023-10-14T02:32:59.507Z,76.3
2023-10-14T02:33:59.486Z,75.6
2023-10-14T02:34:59.462Z,75.8
2023-10-14T02:35:59.459Z,75.6
2023-10-14T02:36:59.497Z,75.6
2023-10-14T02:37:59.451Z,75.6
2023-10-14T02:38:59.449Z,75
2023-10-14T02:39:59.489Z,75.3
2023-10-14T02:40:59.470Z,75.6
2023-10-14T02:41:59.461Z,75.6
2023-10-14T02:42:59.537Z,75
2023-10-14T02:44:05.470Z,75.6
2023-10-14T02:44:59.466Z,75.6
2023-10-14T02:45:59.510Z,75.6
2023-10-14T02:47:06.396Z,75.6
2023-10-14T02:47:59.490Z,75.5
2023-10-14T02:48:59.498Z,75.6
2023-10-14T02:50:07.243Z,75
2023-10-14T02:50:59.454Z,75.6
2023-10-14T02:51:59.482Z,75.3
2023-10-14T02:53:07.884Z,75
2023-10-14T02:53:59.486Z,75.6
2023-10-14T02:54:59.520Z,75.7
2023-10-14T02:56:09.348Z,75
2023-10-14T02:56:59.453Z,75
2023-10-14T02:57:59.486Z,74.4
2023-10-14T02:58:59.459Z,75
2023-10-14T02:59:59.548Z,75.3
2023-10-14T03:00:59.523Z,75
2023-10-14T03:01:59.547Z,75
2023-10-14T03:02:59.577Z,74.4
2023-10-14T03:03:59.537Z,74.1
2023-10-14T03:04:59.514Z,75
2023-10-14T03:05:59.464Z,74.4
2023-10-14T03:06:59.503Z,74.7
2023-10-14T03:07:59.466Z,75
2023-10-14T03:08:59.456Z,75
2023-10-14T03:09:59.634Z,75
2023-10-14T03:10:59.493Z,75
2023-10-14T03:11:59.455Z,75
2023-10-14T03:12:59.720Z,74.4
2023-10-14T03:13:59.462Z,75.3
2023-10-14T03:14:59.472Z,75
2023-10-14T03:15:59.628Z,75.3
2023-10-14T03:16:59.494Z,75
2023-10-14T03:17:59.806Z,75
2023-10-14T03:18:59.488Z,75.3
2023-10-14T03:19:59.504Z,75.6
2023-10-14T03:20:59.489Z,75.7
2023-10-14T03:21:59.514Z,75.3
2023-10-14T03:22:59.461Z,75.7
2023-10-14T03:23:59.459Z,75
2023-10-14T03:24:59.500Z,75
2023-10-14T03:25:59.461Z,75.3
2023-10-14T03:26:59.481Z,75.3
2023-10-14T03:27:59.484Z,75.3
2023-10-14T03:28:59.452Z,75
2023-10-14T03:29:59.494Z,75.7
2023-10-14T03:30:59.709Z,75
2023-10-14T03:31:59.545Z,75.7
2023-10-14T03:32:59.487Z,75.7
2023-10-14T03:33:59.549Z,75.7
2023-10-14T03:34:59.459Z,75.7
2023-10-14T03:35:59.480Z,75.7
2023-10-14T03:36:59.485Z,75.7
2023-10-14T03:37:59.466Z,75.7
2023-10-14T03:38:59.457Z,75
2023-10-14T03:39:59.463Z,76
2023-10-14T03:40:59.486Z,75.7
2023-10-14T03:41:59.454Z,76.3
2023-10-14T03:42:59.483Z,76.3
2023-10-14T03:43:59.870Z,76.3
2023-10-14T03:44:59.462Z,76.6
2023-10-14T03:46:00.113Z,76.3
2023-10-14T03:46:59.508Z,77
2023-10-14T03:47:59.540Z,77
2023-10-14T03:49:02.126Z,77.6
2023-10-14T03:49:59.452Z,77.3
2023-10-14T03:50:59.460Z,77.6
2023-10-14T03:52:04.029Z,77.9
2023-10-14T03:52:59.459Z,77.9
2023-10-14T03:53:59.453Z,78.2
2023-10-14T03:55:05.044Z,78.2
2023-10-14T03:55:59.451Z,78.5
2023-10-14T03:56:59.459Z,78.5
2023-10-14T03:58:06.430Z,78.5
2023-10-14T03:58:59.866Z,78.8
2023-10-14T03:59:59.463Z,78.8
2023-10-14T04:01:08.505Z,78.8
2023-10-14T04:02:00.228Z,78.8
2023-10-14T04:02:59.568Z,78.8
2023-10-14T04:04:09.961Z,78.2
2023-10-14T04:04:59.452Z,78.8
2023-10-14T04:05:59.447Z,78.8
2023-10-14T04:06:59.481Z,78.8
2023-10-14T04:07:59.471Z,78.8
2023-10-14T04:08:59.466Z,78.8
2023-10-14T04:09:59.479Z,78.8
2023-10-14T04:10:59.455Z,78.8
2023-10-14T04:12:01.586Z,79.1
2023-10-14T04:12:59.512Z,78.8
2023-10-14T04:13:59.479Z,78.8
2023-10-14T04:14:59.487Z,78.8
2023-10-14T04:15:59.544Z,79.1
2023-10-14T04:16:59.454Z,78.8
2023-10-14T04:17:59.522Z,79.1
2023-10-14T04:18:59.535Z,79.4
2023-10-14T04:19:59.555Z,79.5
2023-10-14T04:20:59.452Z,79.4
2023-10-14T04:21:59.510Z,79.5
2023-10-14T04:22:59.470Z,79.5
2023-10-14T04:23:59.450Z,79.5
2023-10-14T04:24:59.521Z,79.6
2023-10-14T04:25:59.471Z,78.8
2023-10-14T04:26:59.463Z,79.5
2023-10-14T04:27:59.484Z,79.5
2023-10-14T04:28:59.476Z,79.5
2023-10-14T04:29:59.493Z,79.4
2023-10-14T04:30:59.510Z,79.5
2023-10-14T04:31:59.589Z,79.4
2023-10-14T04:32:59.479Z,79.5
2023-10-14T04:33:59.516Z,79.4
2023-10-14T04:34:59.449Z,79.1
2023-10-14T04:35:59.449Z,79.5
2023-10-14T04:36:59.476Z,79.1
2023-10-14T04:37:59.455Z,78.8
2023-10-14T04:38:59.472Z,79.1
2023-10-14T04:39:59.489Z,79.1
2023-10-14T04:40:59.555Z,78.8
2023-10-14T04:41:59.445Z,78.8
2023-10-14T04:42:59.468Z,78.8
2023-10-14T04:43:59.462Z,78.8
2023-10-14T04:44:59.451Z,78.8
2023-10-14T04:45:59.538Z,78.8
2023-10-14T04:46:59.542Z,78.8
2023-10-14T04:47:59.580Z,78.8
2023-10-14T04:48:59.529Z,78.8
2023-10-14T04:49:59.451Z,78.8
2023-10-14T04:50:59.460Z,79
2023-10-14T04:51:59.472Z,78.8
2023-10-14T04:52:59.449Z,78.8
2023-10-14T04:53:59.448Z,79.1
2023-10-14T04:54:59.469Z,78.8
2023-10-14T04:55:59.448Z,78.8
2023-10-14T04:56:59.459Z,78.8
2023-10-14T04:57:59.503Z,78.8
2023-10-14T04:58:59.447Z,78.8
2023-10-14T04:59:59.458Z,79.1
2023-10-14T05:00:59.572Z,79.4
2023-10-14T05:01:59.460Z,78.8
2023-10-14T05:02:59.531Z,78.8
2023-10-14T05:03:59.597Z,79.1
2023-10-14T05:04:59.453Z,78.8
2023-10-14T05:05:59.444Z,79.1
2023-10-14T05:06:59.465Z,79.1
2023-10-14T05:07:59.458Z,79.4
2023-10-14T05:08:59.457Z,79.1
2023-10-14T05:09:59.502Z,79.1
2023-10-14T05:10:59.449Z,79.1
2023-10-14T05:11:59.531Z,79.1
2023-10-14T05:12:59.661Z,79.4
2023-10-14T05:13:59.461Z,79.4
2023-10-14T05:15:01.395Z,79.4
2023-10-14T05:15:59.530Z,79.4
2023-10-14T05:16:59.568Z,79.4
2023-10-14T05:18:02.533Z,79.4
2023-10-14T05:18:59.620Z,79.4
2023-10-14T05:19:59.621Z,79.4
2023-10-14T05:21:05.470Z,79.7
2023-10-14T05:21:59.467Z,79.4
2023-10-14T05:22:59.450Z,79.4
2023-10-14T05:24:05.324Z,79.7
2023-10-14T05:24:59.481Z,79.4
2023-10-14T05:25:59.455Z,79.4
2023-10-14T05:27:07.426Z,79.4
2023-10-14T05:27:59.586Z,79.7
2023-10-14T05:28:59.452Z,79.7
2023-10-14T05:30:10.159Z,79.7
2023-10-14T05:30:59.511Z,79.4
2023-10-14T05:31:59.505Z,79.4
2023-10-14T05:32:59.493Z,79.7
2023-10-14T05:33:59.498Z,79.4
2023-10-14T05:34:59.454Z,79.4
2023-10-14T05:35:59.453Z,79.1
2023-10-14T05:36:59.519Z,79.4
2023-10-14T05:37:59.456Z,79.4
2023-10-14T05:38:59.454Z,79.4
2023-10-14T05:39:59.485Z,79.7
2023-10-14T05:40:59.459Z,79.4
2023-10-14T05:41:59.601Z,79.4
2023-10-14T05:42:59.497Z,79.4
2023-10-14T05:43:59.467Z,79.1
2023-10-14T05:44:59.775Z,79.4
2023-10-14T05:45:59.521Z,79.4
2023-10-14T05:46:59.480Z,79.1
2023-10-14T05:47:59.473Z,79.4
2023-10-14T05:48:59.586Z,79.4
2023-10-14T05:49:59.603Z,79.4
2023-10-14T05:50:59.454Z,79.4
2023-10-14T05:51:59.523Z,79.4
2023-10-14T05:52:59.470Z,79.4
2023-10-14T05:53:59.467Z,79.4
2023-10-14T05:54:59.469Z,79.4
2023-10-14T05:55:59.496Z,79.1
2023-10-14T05:56:59.474Z,79.4
2023-10-14T05:57:59.505Z,79.4
2023-10-14T05:58:59.452Z,79.1
2023-10-14T05:59:59.467Z,79.1
2023-10-14T06:00:59.469Z,79.1
2023-10-14T06:01:59.527Z,79.4
2023-10-14T06:02:59.544Z,79.4
2023-10-14T06:03:59.531Z,79.1
2023-10-14T06:04:59.576Z,79.1
2023-10-14T06:05:59.453Z,79.4
2023-10-14T06:06:59.485Z,79.4
2023-10-14T06:07:59.465Z,79.4
2023-10-14T06:08:59.458Z,79.4
2023-10-14T06:09:59.514Z,79.4
2023-10-14T06:10:59.454Z,79.4
2023-10-14T06:12:01.255Z,79.4
2023-10-14T06:12:59.531Z,79.4
2023-10-14T06:13:59.795Z,79.4
2023-10-14T06:14:59.495Z,79.4
2023-10-14T06:15:59.497Z,79.4
2023-10-14T06:17:00.593Z,79.4
2023-10-14T06:17:59.484Z,79.4
2023-10-14T06:18:59.497Z,79.4
2023-10-14T06:19:59.460Z,79.4
2023-10-14T06:20:59.477Z,79.4
2023-10-14T06:21:59.482Z,79.4
2023-10-14T06:22:59.454Z,79.4
2023-10-14T06:23:59.448Z,79.4
2023-10-14T06:24:59.451Z,79.4
2023-10-14T06:25:59.449Z,79.4
2023-10-14T06:26:59.450Z,79.4
2023-10-14T06:28:01.486Z,79.4
2023-10-14T06:28:59.452Z,79.4
2023-10-14T06:29:59.455Z,79.4
2023-10-14T06:30:59.498Z,79.4
2023-10-14T06:32:12.623Z,80
2023-10-14T06:36:59.747Z,80
2023-10-14T06:37:59.404Z,80.3
2023-10-14T06:38:59.404Z,80
2023-10-14T06:40:03.377Z,80
2023-10-14T06:40:59.401Z,80
2023-10-14T06:41:59.397Z,80
2023-10-14T06:43:03.945Z,80
2023-10-14T06:43:59.404Z,80
2023-10-14T06:44:59.405Z,80.3
2023-10-14T06:46:04.968Z,80.4
2023-10-14T06:46:59.486Z,80.1
2023-10-14T06:47:59.427Z,80
2023-10-14T06:49:07.448Z,80.4
2023-10-14T06:49:59.419Z,80
2023-10-14T06:50:59.418Z,80
2023-10-14T06:52:10.239Z,80.1
2023-10-14T06:52:59.406Z,79.4
2023-10-14T06:53:59.421Z,80.1
2023-10-14T06:54:59.419Z,80.1
2023-10-14T06:55:59.587Z,80
2023-10-14T06:56:59.418Z,80.1
2023-10-14T06:57:59.440Z,79.8
2023-10-14T06:58:59.411Z,80.1
2023-10-14T06:59:59.433Z,79.8
2023-10-14T07:00:59.498Z,79.8
2023-10-14T07:01:59.430Z,80.1
2023-10-14T07:02:59.456Z,80.1
2023-10-14T07:03:59.446Z,80.1
2023-10-14T07:04:59.508Z,80.1
2023-10-14T07:05:59.425Z,80.1
2023-10-14T07:06:59.489Z,80.1
2023-10-14T07:07:59.412Z,80.1
2023-10-14T07:08:59.420Z,80.1
2023-10-14T07:10:09.057Z,79.8
2023-10-14T07:10:59.407Z,80.1
2023-10-14T07:11:59.412Z,80.1
2023-10-14T07:12:59.444Z,79.5
2023-10-14T07:13:59.405Z,79.5
2023-10-14T07:14:59.409Z,79.8
2023-10-14T07:15:59.482Z,79.5
2023-10-14T07:16:59.474Z,79.5
2023-10-14T07:17:59.410Z,79.2
2023-10-14T07:18:59.489Z,78.9
2023-10-14T07:19:59.409Z,79.5
2023-10-14T07:20:59.423Z,79.5
2023-10-14T07:21:59.492Z,78.9
2023-10-14T07:22:59.406Z,79.5
2023-10-14T07:23:59.402Z,79.5
2023-10-14T07:24:59.422Z,78.9
2023-10-14T07:25:59.397Z,79.5
2023-10-14T07:26:59.413Z,79.2
2023-10-14T07:27:59.438Z,79.5
2023-10-14T07:28:59.410Z,78.9
2023-10-14T07:29:59.428Z,78.9
2023-10-14T07:30:59.435Z,78.9
2023-10-14T07:31:59.530Z,78.9
2023-10-14T07:32:59.524Z,78.9
2023-10-14T07:33:59.590Z,78.9
2023-10-14T07:34:59.439Z,78.5
2023-10-14T07:35:59.407Z,78.9
2023-10-14T07:36:59.409Z,78.9
2023-10-14T07:37:59.404Z,78.9
2023-10-14T07:38:59.413Z,78.2
2023-10-14T07:39:59.513Z,79.5
2023-10-14T07:40:59.407Z,79.2
2023-10-14T07:41:59.422Z,79.2
2023-10-14T07:42:59.467Z,79.2
2023-10-14T07:43:59.413Z,79.2
2023-10-14T07:44:59.418Z,79.5
2023-10-14T07:45:59.466Z,79.5
2023-10-14T07:46:59.520Z,79.5
2023-10-14T07:47:59.435Z,79.5
2023-10-14T07:48:59.450Z,79.1
2023-10-14T07:49:59.447Z,79.2
2023-10-14T07:51:03.936Z,78.8
2023-10-14T07:51:59.413Z,78.8
2023-10-14T07:52:59.450Z,79.2
2023-10-14T07:53:59.409Z,79.2
2023-10-14T07:54:59.440Z,79.5
2023-10-14T07:55:59.426Z,79.2
2023-10-14T07:56:59.407Z,79.2
2023-10-14T07:57:59.428Z,79
2023-10-14T07:58:59.422Z,78.9
2023-10-14T07:59:59.415Z,78.5
2023-10-14T08:00:59.441Z,78.5
2023-10-14T08:01:59.502Z,78.9
2023-10-14T08:02:59.492Z,78.9
2023-10-14T08:03:59.620Z,78.9
2023-10-14T08:04:59.486Z,78.9
2023-10-14T08:05:59.432Z,78.5
2023-10-14T08:06:59.450Z,78.9
2023-10-14T08:07:59.406Z,78.2
2023-10-14T08:08:59.404Z,78.2
2023-10-14T08:09:59.455Z,78.2
2023-10-14T08:10:59.410Z,78.2
2023-10-14T08:11:59.407Z,78.2
2023-10-14T08:12:59.438Z,78.2
2023-10-14T08:13:59.411Z,78.2
2023-10-14T08:14:59.410Z,78.2
2023-10-14T08:15:59.480Z,78.2
2023-10-14T08:16:59.586Z,78.2
2023-10-14T08:18:00.110Z,78.2
2023-10-14T08:18:59.434Z,78.5
2023-10-14T08:19:59.425Z,78.5
2023-10-14T08:21:00.878Z,78.2
2023-10-14T08:21:59.418Z,78.2
2023-10-14T08:22:59.405Z,78.2
2023-10-14T08:24:01.682Z,78.2
2023-10-14T08:24:59.435Z,77.9
2023-10-14T08:25:59.407Z,77.6
2023-10-14T08:27:02.327Z,78.2
2023-10-14T08:27:59.405Z,77.6
2023-10-14T08:28:59.411Z,78.2
2023-10-14T08:30:03.185Z,78.5
2023-10-14T08:30:59.415Z,78.8
2023-10-14T08:31:59.448Z,78.8
2023-10-14T08:32:59.427Z,78.8
2023-10-14T08:33:59.441Z,79.5
2023-10-14T08:34:59.401Z,79.5
2023-10-14T08:35:59.398Z,79.8
2023-10-14T08:36:59.438Z,79.8
2023-10-14T08:37:59.696Z,80.1
2023-10-14T08:38:59.415Z,80.1
2023-10-14T08:39:59.437Z,80.1
2023-10-14T08:40:59.400Z,80.7
2023-10-14T08:41:59.405Z,81
2023-10-14T08:42:59.441Z,81.3
2023-10-14T08:43:59.401Z,81.3
2023-10-14T08:44:59.428Z,81.3
2023-10-14T08:45:59.441Z,82
2023-10-14T08:46:59.472Z,82.1
2023-10-14T08:47:59.509Z,82.3
2023-10-14T08:48:59.433Z,82.6
2023-10-14T08:49:59.411Z,82.6
2023-10-14T08:50:59.424Z,82.6
2023-10-14T08:51:59.449Z,82.6
2023-10-14T08:52:59.410Z,82.9
2023-10-14T08:53:59.401Z,82.3
2023-10-14T08:54:59.415Z,82.6
2023-10-14T08:55:59.584Z,82.6
2023-10-14T08:56:59.425Z,82.6
2023-10-14T08:57:59.422Z,82.3
2023-10-14T08:58:59.525Z,82.6
2023-10-14T08:59:59.474Z,82.6
2023-10-14T09:00:59.523Z,82.6
2023-10-14T09:01:59.462Z,82.3
2023-10-14T09:02:59.476Z,82.6
2023-10-14T09:04:08.409Z,82.3
2023-10-14T09:04:59.408Z,82
2023-10-14T09:05:59.438Z,81.7
2023-10-14T09:07:09.907Z,82
2023-10-14T09:07:59.408Z,82
2023-10-14T09:08:59.406Z,82.3
2023-10-14T09:09:59.551Z,82
2023-10-14T09:10:59.429Z,82
2023-10-14T09:11:59.425Z,82.3
2023-10-14T09:12:59.428Z,82.6
2023-10-14T09:13:59.414Z,82.6
2023-10-14T09:14:59.405Z,82.8
2023-10-14T09:15:59.461Z,82.9
2023-10-14T09:16:59.565Z,83.2
2023-10-14T09:17:59.450Z,82.9
2023-10-14T09:18:59.465Z,83.3
2023-10-14T09:19:59.410Z,83.2
2023-10-14T09:20:59.412Z,83.3
2023-10-14T09:21:59.437Z,83.3
2023-10-14T09:22:59.402Z,83.3
2023-10-14T09:23:59.400Z,82.6
2023-10-14T09:24:59.432Z,82.6
2023-10-14T09:25:59.472Z,82.7
2023-10-14T09:26:59.418Z,82.3
2023-10-14T09:27:59.935Z,82
2023-10-14T09:28:59.404Z,81.4
2023-10-14T09:29:59.411Z,82
2023-10-14T09:31:01.330Z,82
2023-10-14T09:31:59.508Z,81.7
2023-10-14T09:32:59.451Z,82.1
2023-10-14T09:34:02.633Z,82.1
2023-10-14T09:34:59.411Z,82.1
2023-10-14T09:35:59.415Z,82.1
2023-10-14T09:37:03.295Z,82.4
2023-10-14T09:37:59.412Z,82.4
2023-10-14T09:38:59.441Z,82.7
2023-10-14T09:40:05.218Z,82.1
2023-10-14T09:40:59.408Z,82.1
2023-10-14T09:41:59.446Z,82.1
2023-10-14T09:42:59.436Z,82.1
2023-10-14T09:43:59.416Z,82.1
2023-10-14T09:44:59.403Z,82.1
2023-10-14T09:45:59.448Z,82.1
2023-10-14T09:46:59.435Z,82.7
2023-10-14T09:47:59.486Z,82.1
2023-10-14T09:48:59.410Z,82.6
2023-10-14T09:49:59.508Z,82.4
2023-10-14T09:50:59.426Z,82.1
2023-10-14T09:51:59.522Z,82.7
2023-10-14T09:52:59.428Z,82.7
2023-10-14T09:53:59.404Z,82.7
2023-10-14T09:55:01.353Z,82.4
2023-10-14T09:55:59.440Z,82.7
2023-10-14T09:56:59.412Z,83.3
2023-10-14T09:57:59.436Z,83
2023-10-14T09:58:59.404Z,82.7
2023-10-14T09:59:59.578Z,83
2023-10-14T10:00:59.453Z,83.3
2023-10-14T10:01:59.524Z,83.3
2023-10-14T10:02:59.501Z,83.3
2023-10-14T10:03:59.496Z,83.6
2023-10-14T10:04:59.433Z,83.3
2023-10-14T10:05:59.456Z,83.3
2023-10-14T10:06:59.509Z,84
2023-10-14T10:07:59.446Z,84
2023-10-14T10:08:59.439Z,84
2023-10-14T10:09:59.615Z,83.3
2023-10-14T10:10:59.548Z,83.5
2023-10-14T10:11:59.494Z,83.3
2023-10-14T10:12:59.465Z,82.7
2023-10-14T10:13:59.421Z,82.7
2023-10-14T10:14:59.407Z,82.7
2023-10-14T10:15:59.669Z,82.7
2023-10-14T10:16:59.472Z,82.7
2023-10-14T10:17:59.768Z,82.7
2023-10-14T10:19:00.935Z,82.7
2023-10-14T10:19:59.434Z,83
2023-10-14T10:20:59.419Z,83
2023-10-14T10:22:02.035Z,83.5
2023-10-14T10:22:59.447Z,82.7
2023-10-14T10:23:59.419Z,83.3
2023-10-14T10:25:03.141Z,83.3
2023-10-14T10:25:59.447Z,83.3
2023-10-14T10:26:59.423Z,83.4
2023-10-14T10:28:04.818Z,83.4
2023-10-14T10:28:59.402Z,83.4
2023-10-14T10:29:59.505Z,83.4
2023-10-14T10:31:05.774Z,83.1
2023-10-14T10:31:59.528Z,80.5
2023-10-14T10:32:59.426Z,80.8
2023-10-14T10:34:06.202Z,80.5
2023-10-14T10:34:59.408Z,80.2
2023-10-14T10:35:59.402Z,80.2
2023-10-14T10:36:59.404Z,80.9
2023-10-14T10:37:59.398Z,80.6
2023-10-14T10:38:59.404Z,80.9
2023-10-14T10:39:59.441Z,79.6
2023-10-14T10:40:59.452Z,79.3
2023-10-14T10:41:59.455Z,79.9
2023-10-14T10:42:59.440Z,80.3
2023-10-14T10:43:59.426Z,79.3
2023-10-14T10:44:59.439Z,79.4
2023-10-14T10:45:59.469Z,78.4
2023-10-14T10:47:00.137Z,78.4
2023-10-14T10:47:59.441Z,78.4
2023-10-14T10:48:59.454Z,78.1
2023-10-14T10:49:59.450Z,78.4
2023-10-14T10:50:59.408Z,77.1
2023-10-14T10:51:59.456Z,76.8
2023-10-14T10:52:59.419Z,77.5
2023-10-14T10:53:59.454Z,77.5
2023-10-14T10:54:59.613Z,75.9
2023-10-14T10:55:59.400Z,75.9
2023-10-14T10:57:07.257Z,75.3
2023-10-14T10:57:59.423Z,74.6
2023-10-14T10:58:59.405Z,75.3
2023-10-14T10:59:59.466Z,75.9
2023-10-14T11:00:59.499Z,76.5
2023-10-14T11:01:59.575Z,75.9
2023-10-14T11:02:59.555Z,76.8
2023-10-14T11:03:59.476Z,75.8
2023-10-14T11:04:59.408Z,75.8
2023-10-14T11:05:59.425Z,76.5
2023-10-14T11:06:59.445Z,76.5
2023-10-14T11:07:59.443Z,75.8
2023-10-14T11:08:59.429Z,75.8
2023-10-14T11:09:59.469Z,76.8
2023-10-14T11:10:59.445Z,77.1
2023-10-14T11:11:59.427Z,76.5
2023-10-14T11:12:59.431Z,75.8
2023-10-14T11:13:59.407Z,76.5
2023-10-14T11:14:59.409Z,77.1
2023-10-14T11:15:59.440Z,75.2
2023-10-14T11:16:59.452Z,75.4
2023-10-14T11:17:59.433Z,75.2
2023-10-14T11:18:59.460Z,76.2
2023-10-14T11:19:59.416Z,75.2
2023-10-14T11:20:59.407Z,75.2
2023-10-14T11:21:59.496Z,74.9
2023-10-14T11:22:59.451Z,74.2
2023-10-14T11:23:59.423Z,74.6
2023-10-14T11:24:59.588Z,75.2
2023-10-14T11:25:59.495Z,74.6
2023-10-14T11:26:59.455Z,74.9
2023-10-14T11:28:01.592Z,75.2
2023-10-14T11:28:59.405Z,75.2
2023-10-14T11:29:59.450Z,73.6
2023-10-14T11:31:03.211Z,74
2023-10-14T11:31:59.470Z,73.9
2023-10-14T11:32:59.450Z,73.9
2023-10-14T11:34:03.952Z,72.7
2023-10-14T11:34:59.409Z,73.3
2023-10-14T11:35:59.426Z,74.6
2023-10-14T11:37:05.100Z,73.3
2023-10-14T11:37:59.412Z,73.3
2023-10-14T11:38:59.408Z,73.3
2023-10-14T11:40:06.303Z,72.4
2023-10-14T11:40:59.441Z,73.7
2023-10-14T11:41:59.414Z,72.7
2023-10-14T11:43:07.276Z,72.9
2023-10-14T11:43:59.397Z,73.4
2023-10-14T11:44:59.398Z,72.4
2023-10-14T11:46:08.885Z,72.8
2023-10-14T11:46:59.693Z,71.5
2023-10-14T11:47:59.463Z,70.8
2023-10-14T11:49:09.612Z,70.2
2023-10-14T11:49:59.424Z,71.8
2023-10-14T11:50:59.401Z,70.2
2023-10-14T11:51:59.426Z,71.2
2023-10-14T11:52:59.410Z,71.8
2023-10-14T11:53:59.431Z,70.9
2023-10-14T11:55:00.315Z,70.2
2023-10-14T11:55:59.415Z,69.6
2023-10-14T11:56:59.496Z,70.2
2023-10-14T11:57:59.446Z,70.6
2023-10-14T11:58:59.407Z,70.3
2023-10-14T11:59:59.412Z,69.6
2023-10-14T12:00:59.451Z,69.3
2023-10-14T12:01:59.411Z,70.3
2023-10-14T12:02:59.526Z,69
2023-10-14T12:03:59.514Z,69.6
2023-10-14T12:04:59.640Z,70.3
2023-10-14T12:05:59.443Z,68.7
2023-10-14T12:06:59.435Z,68.3
2023-10-14T12:07:59.413Z,67.7
2023-10-14T12:08:59.399Z,67.4
2023-10-14T12:09:59.423Z,67.7
2023-10-14T12:10:59.413Z,67.7
2023-10-14T12:11:59.439Z,68.3
2023-10-14T12:12:59.462Z,69.1
2023-10-14T12:13:59.424Z,69.3
2023-10-14T12:14:59.455Z,68.9
2023-10-14T12:15:59.467Z,68.3
2023-10-14T12:16:59.485Z,68.9
2023-10-14T12:17:59.454Z,68.9
2023-10-14T12:18:59.433Z,68.9
2023-10-14T12:19:59.431Z,69.7
2023-10-14T12:20:59.535Z,69.5
2023-10-14T12:21:59.421Z,70.2
2023-10-14T12:22:59.450Z,69.9
2023-10-14T12:23:59.404Z,69.9
2023-10-14T12:24:59.429Z,70.4
2023-10-14T12:25:59.403Z,69.3
2023-10-14T12:26:59.416Z,68.3
2023-10-14T12:27:59.431Z,69.6
2023-10-14T12:28:59.481Z,69.6
2023-10-14T12:29:59.401Z,69.6
2023-10-14T12:30:59.517Z,69.6
2023-10-14T12:32:11.905Z,69.6
2023-10-14T12:32:59.810Z,69
2023-10-14T12:34:00.240Z,68.4
2023-10-14T12:34:59.407Z,69
2023-10-14T12:35:59.434Z,68.3
2023-10-14T12:37:01.064Z,68.3
2023-10-14T12:37:59.435Z,69
2023-10-14T12:38:59.419Z,69.9
2023-10-14T12:39:59.414Z,69.3
2023-10-14T12:40:59.405Z,69.3
2023-10-14T12:41:59.399Z,69.9
2023-10-14T12:42:59.436Z,70.2
2023-10-14T12:43:59.408Z,70.2
2023-10-14T12:44:59.407Z,70.2
2023-10-14T12:45:59.458Z,70.2
2023-10-14T12:46:59.523Z,70.8
2023-10-14T12:47:59.423Z,71.4
2023-10-14T12:48:59.429Z,71.5
2023-10-14T12:50:01.204Z,71.4
2023-10-14T12:50:59.422Z,71.4
2023-10-14T12:51:59.433Z,70.8
2023-10-14T12:52:59.411Z,71.4
2023-10-14T12:53:59.557Z,71.4
2023-10-14T12:54:59.431Z,68.2
2023-10-14T12:55:59.398Z,68.2
2023-10-14T12:56:59.403Z,68.8
2023-10-14T12:57:59.487Z,68.5
2023-10-14T12:58:59.422Z,68.7
2023-10-14T12:59:59.510Z,69
2023-10-14T13:00:59.532Z,71.9
2023-10-14T13:01:59.465Z,71.8
2023-10-14T13:02:59.529Z,71.8
2023-10-14T13:03:59.517Z,72.1
2023-10-14T13:04:59.430Z,73.1
2023-10-14T13:05:59.402Z,72.4
2023-10-14T13:06:59.612Z,73.7
2023-10-14T13:07:59.443Z,73.7
2023-10-14T13:08:59.407Z,74.6
2023-10-14T13:09:59.514Z,74.6
2023-10-14T13:10:59.428Z,74.9
2023-10-14T13:11:59.413Z,75.7
2023-10-14T13:12:59.469Z,75.5
2023-10-14T13:13:59.418Z,75.2
2023-10-14T13:14:59.411Z,75.5
2023-10-14T13:15:59.451Z,76.8
2023-10-14T13:16:59.524Z,76.8
2023-10-14T13:17:59.426Z,77.4
2023-10-14T13:18:59.435Z,77.5
2023-10-14T13:19:59.416Z,77.5
2023-10-14T13:20:59.446Z,77.5
2023-10-14T13:21:59.549Z,77.2
2023-10-14T13:22:59.436Z,76.9
2023-10-14T13:23:59.413Z,76.6
2023-10-14T13:24:59.426Z,76.9
2023-10-14T13:26:00.048Z,76.9
2023-10-14T13:26:59.406Z,76.2
2023-10-14T13:27:59.446Z,76.2
2023-10-14T13:28:59.427Z,76.2